CDT,Max TemperatureF,Mean TemperatureF,Min TemperatureF,Max Dew PointF,MeanDew PointF,Min DewpointF,Max Humidity, Mean Humidity, Min Humidity, Max Sea Level PressureIn, Mean Sea Level PressureIn, Min Sea Level PressureIn, Max VisibilityMiles, Mean VisibilityMiles, Min VisibilityMiles, Max Wind SpeedMPH, Mean Wind SpeedMPH, Max Gust SpeedMPH,PrecipitationIn, CloudCover, Events, WindDirDegrees
2013-10-1,88,78,68,70,68,66,93,76,51,30.05,30.00,29.96,10,9,6,9,6,,0.00,2,,126
2013-10-2,86,79,72,71,69,66,91,76,51,30.07,30.02,29.97,10,10,7,9,5,,0.05,2,Rain,115
2013-10-3,87,78,71,72,70,68,94,82,55,30.06,30.00,29.95,10,8,3,20,6,102,0.00,5,,133
2013-10-4,89,81,73,72,70,67,94,77,49,30.05,30.00,29.96,10,10,7,10,7,,0.00,4,,146
2013-10-5,89,81,73,73,71,69,94,81,53,30.05,29.98,29.90,10,8,2,14,5,,0.06,4,Rain,135
2013-10-6,73,66,59,72,63,51,100,83,49,29.97,29.91,29.87,10,8,1,15,5,24,0.06,6,Rain-Thunderstorm,317
2013-10-7,73,62,52,52,51,48,93,67,44,30.06,30.02,29.96,10,10,10,9,5,21,0.00,0,,338
2013-10-8,77,64,50,54,50,48,93,66,37,30.07,30.04,30.00,10,10,10,9,3,,0.00,0,,343
2013-10-9,81,67,54,64,60,52,94,78,54,30.13,30.07,30.02,10,10,8,8,2,,0.00,2,,118
2013-10-10,82,72,62,65,63,60,100,86,49,30.14,30.08,29.99,10,4,0,7,0,,0.01,4,Fog,200
2013-10-11,84,72,62,69,64,61,100,85,52,30.08,30.02,29.96,10,5,0,7,1,,0.00,3,Fog,179
2013-10-12,87,76,64,70,66,62,100,87,49,30.09,30.04,29.99,10,6,0,9,1,,0.03,3,Fog-Rain,211
2013-10-13,84,75,66,68,66,64,100,84,53,30.20,30.13,30.08,10,6,0,9,2,,0.00,2,Fog,2
2013-10-14,84,73,64,64,61,58,93,68,42,30.14,30.09,30.03,10,9,6,7,3,,0.00,0,,86
2013-10-15,84,73,64,67,63,60,87,71,47,30.07,30.00,29.95,10,10,10,9,4,,0.00,4,,159
2013-10-16,77,70,64,70,68,62,100,90,81,29.99,29.94,29.90,10,6,1,12,6,17,0.34,8,Rain,275
2013-10-17,66,58,53,63,58,53,100,90,73,30.05,29.99,29.92,10,6,0,10,3,,0.07,5,Fog-Rain,323
2013-10-18,72,61,50,59,52,48,96,84,48,30.08,30.01,29.94,10,6,0,7,0,,0.01,2,Fog-Rain,117
2013-10-19,73,62,50,58,55,48,93,78,55,30.06,30.00,29.93,10,10,7,10,3,18,0.01,3,,299
2013-10-20,71,57,44,46,42,33,93,66,27,30.10,30.05,29.99,10,10,9,6,2,,0.00,0,,82
2013-10-21,73,59,45,57,51,43,93,75,41,30.08,30.02,29.98,10,10,8,7,1,,0.00,0,,146
2013-10-22,72,62,53,56,54,49,100,83,53,30.03,30.00,29.96,10,6,0,13,3,16,0.00,3,Fog,318
2013-10-23,70,60,48,48,44,38,86,63,31,30.14,30.08,30.01,10,10,10,10,4,17,0.00,0,,324
2013-10-24,77,60,46,52,47,42,93,65,41,30.29,30.17,30.10,10,10,10,13,3,18,0.00,0,,308
2013-10-25,64,54,46,42,35,30,74,53,30,30.45,30.37,30.30,10,10,10,14,6,21,0.00,0,,44
2013-10-26,73,56,41,49,40,35,86,61,30,30.31,30.23,30.13,10,10,8,7,1,,0.00,0,,155
2013-10-27,70,60,51,59,53,47,94,79,58,30.14,30.09,30.04,10,9,3,12,3,,0.10,5,Rain,166
2013-10-28,75,68,60,64,62,59,100,88,64,30.20,30.13,30.07,10,5,0,7,1,,0.19,6,Fog-Rain,138
2013-10-29,80,71,62,63,61,60,94,80,52,30.24,30.19,30.14,10,7,2,10,4,,0.00,1,,153
2013-10-30,78,70,62,66,63,61,94,81,62,30.19,30.12,30.00,10,8,2,13,5,,0.00,0,,147
2013-10-31,73,70,64,70,67,62,94,89,78,29.99,29.83,29.73,10,6,0,17,12,26,1.70,7,Fog-Rain,184